createdAt,value
2022-12-16T00:00:12.790Z,16
2022-12-16T00:01:12.808Z,16
2022-12-16T00:02:12.821Z,16
2022-12-16T00:03:12.775Z,16
2022-12-16T00:04:12.756Z,16
2022-12-16T00:05:12.755Z,16
2022-12-16T00:06:12.732Z,16
2022-12-16T00:07:12.724Z,16
2022-12-16T00:08:12.719Z,16
2022-12-16T00:09:12.720Z,16
2022-12-16T00:10:12.701Z,16
2022-12-16T00:11:12.684Z,16
2022-12-16T00:12:12.675Z,16
2022-12-16T00:13:12.665Z,16
2022-12-16T00:14:12.660Z,16
2022-12-16T00:15:12.666Z,16
2022-12-16T00:16:12.640Z,16
2022-12-16T00:17:12.639Z,16
2022-12-16T00:18:12.611Z,16
2022-12-16T00:19:12.606Z,16
2022-12-16T00:20:12.593Z,16
2022-12-16T00:21:12.595Z,16
2022-12-16T00:22:12.574Z,16
2022-12-16T00:23:12.562Z,16
2022-12-16T00:24:12.567Z,16
2022-12-16T00:25:12.547Z,16
2022-12-16T00:26:12.532Z,16
2022-12-16T00:27:12.562Z,16
2022-12-16T00:28:12.543Z,16
2022-12-16T00:29:12.497Z,16
2022-12-16T00:30:12.507Z,16
2022-12-16T00:31:12.486Z,16
2022-12-16T00:32:12.473Z,20
2022-12-16T00:33:12.470Z,16
2022-12-16T00:34:12.467Z,16
2022-12-16T00:35:12.472Z,16
2022-12-16T00:36:12.434Z,16
2022-12-16T00:37:12.425Z,16
2022-12-16T00:38:12.411Z,16
2022-12-16T00:39:12.407Z,16
2022-12-16T00:40:12.421Z,16
2022-12-16T00:41:12.384Z,16
2022-12-16T00:42:12.389Z,16
2022-12-16T00:43:12.362Z,16
2022-12-16T00:44:12.355Z,16
2022-12-16T00:45:12.353Z,16
2022-12-16T00:46:12.342Z,16
2022-12-16T00:47:12.326Z,16
2022-12-16T00:48:12.313Z,16
2022-12-16T00:49:12.483Z,16
2022-12-16T00:50:12.297Z,16
2022-12-16T00:51:12.300Z,16
2022-12-16T00:52:12.294Z,16
2022-12-16T00:53:12.290Z,16
2022-12-16T00:54:12.254Z,16
2022-12-16T00:55:12.246Z,16
2022-12-16T00:56:12.234Z,16
2022-12-16T00:57:12.228Z,16
2022-12-16T00:58:12.220Z,16
2022-12-16T00:59:12.219Z,16
2022-12-16T01:00:12.196Z,16
2022-12-16T01:01:12.187Z,16
2022-12-16T01:02:12.172Z,16
2022-12-16T01:03:12.183Z,16
2022-12-16T01:04:12.161Z,16
2022-12-16T01:05:12.146Z,16
2022-12-16T01:06:12.143Z,16
2022-12-16T01:07:12.124Z,16
2022-12-16T01:08:12.118Z,16
2022-12-16T01:09:12.108Z,16
2022-12-16T01:10:12.099Z,16
2022-12-16T01:11:12.089Z,16
2022-12-16T01:12:12.093Z,16
2022-12-16T01:13:12.067Z,16
2022-12-16T01:14:12.061Z,16
2022-12-16T01:15:12.072Z,16
2022-12-16T01:16:12.048Z,16
2022-12-16T01:17:12.027Z,16
2022-12-16T01:18:12.038Z,16
2022-12-16T01:19:12.025Z,16
2022-12-16T01:20:12.009Z,16
2022-12-16T01:21:11.986Z,16
2022-12-16T01:22:11.976Z,16
2022-12-16T01:23:11.994Z,16
2022-12-16T01:24:11.960Z,16
2022-12-16T01:25:11.949Z,16
2022-12-16T01:26:11.940Z,16
2022-12-16T01:27:11.937Z,16
2022-12-16T01:28:11.931Z,16
2022-12-16T01:29:11.928Z,16
2022-12-16T01:30:11.900Z,16
2022-12-16T01:31:11.892Z,16
2022-12-16T01:32:11.885Z,16
2022-12-16T01:33:11.882Z,16
2022-12-16T01:34:11.858Z,16
2022-12-16T01:35:11.876Z,16
2022-12-16T01:36:11.845Z,16
2022-12-16T01:37:11.830Z,16
2022-12-16T01:38:12.136Z,16
2022-12-16T01:39:11.808Z,16
2022-12-16T01:40:11.812Z,16
2022-12-16T01:41:11.792Z,16
2022-12-16T01:42:11.779Z,16
2022-12-16T01:43:11.800Z,16
2022-12-16T01:44:11.763Z,16
2022-12-16T01:45:11.766Z,16
2022-12-16T01:46:11.751Z,16
2022-12-16T01:47:11.733Z,16
2022-12-16T01:48:11.754Z,16
2022-12-16T01:49:11.726Z,16
2022-12-16T01:50:11.713Z,16
2022-12-16T01:51:11.690Z,16
2022-12-16T01:52:11.686Z,16
2022-12-16T01:53:11.683Z,16
2022-12-16T01:54:11.669Z,16
2022-12-16T01:55:11.651Z,16
2022-12-16T01:56:11.672Z,16
2022-12-16T01:57:11.631Z,16
2022-12-16T01:58:11.904Z,16
2022-12-16T01:59:11.627Z,16
2022-12-16T02:00:11.606Z,16
2022-12-16T02:01:11.600Z,16
2022-12-16T02:02:11.582Z,16
2022-12-16T02:03:11.573Z,16
2022-12-16T02:04:11.561Z,16
2022-12-16T02:05:11.558Z,16
2022-12-16T02:06:11.553Z,16
2022-12-16T02:07:11.535Z,16
2022-12-16T02:08:11.524Z,16
2022-12-16T02:09:11.590Z,16
2022-12-16T02:10:11.515Z,16
2022-12-16T02:11:11.496Z,16
2022-12-16T02:12:11.505Z,16
2022-12-16T02:13:11.476Z,16
2022-12-16T02:14:11.464Z,16
2022-12-16T02:15:11.454Z,16
2022-12-16T02:16:11.449Z,16
2022-12-16T02:17:11.436Z,16
2022-12-16T02:18:11.538Z,16
2022-12-16T02:19:11.424Z,16
2022-12-16T02:20:11.404Z,16
2022-12-16T02:21:11.392Z,16
2022-12-16T02:22:11.386Z,16
2022-12-16T02:23:11.392Z,16
2022-12-16T02:24:11.365Z,16
2022-12-16T02:25:11.354Z,16
2022-12-16T02:26:11.346Z,20
2022-12-16T02:27:11.333Z,16
2022-12-16T02:28:11.326Z,16
2022-12-16T02:29:11.316Z,16
2022-12-16T02:30:11.516Z,16
2022-12-16T02:31:11.303Z,16
2022-12-16T02:32:11.288Z,16
2022-12-16T02:33:11.274Z,16
2022-12-16T02:34:11.263Z,16
2022-12-16T02:35:11.264Z,16
2022-12-16T02:36:11.267Z,16
2022-12-16T02:37:11.239Z,16
2022-12-16T02:38:11.228Z,16
2022-12-16T02:39:11.218Z,16
2022-12-16T02:40:11.210Z,16
2022-12-16T02:41:11.200Z,16
2022-12-16T02:42:11.188Z,16
2022-12-16T02:43:11.178Z,16
2022-12-16T02:44:11.214Z,16
2022-12-16T02:45:11.171Z,16
2022-12-16T02:46:11.180Z,16
2022-12-16T02:47:11.158Z,16
2022-12-16T02:48:11.131Z,16
2022-12-16T02:49:11.141Z,16
2022-12-16T02:50:11.108Z,16
2022-12-16T02:51:11.102Z,16
2022-12-16T02:52:11.088Z,16
2022-12-16T02:53:11.076Z,16
2022-12-16T02:54:11.068Z,16
2022-12-16T02:55:11.061Z,16
2022-12-16T02:56:11.058Z,16
2022-12-16T02:57:11.054Z,16
2022-12-16T02:58:11.026Z,16
2022-12-16T02:59:11.015Z,16
2022-12-16T03:00:11.014Z,16
2022-12-16T03:01:10.998Z,16
2022-12-16T03:02:10.994Z,16
2022-12-16T03:03:10.976Z,16
2022-12-16T03:04:10.970Z,16
2022-12-16T03:05:10.989Z,16
2022-12-16T03:06:10.948Z,16
2022-12-16T03:07:10.944Z,16
2022-12-16T03:08:10.934Z,16
2022-12-16T03:09:10.946Z,16
2022-12-16T03:10:10.905Z,16
2022-12-16T03:11:10.957Z,16
2022-12-16T03:12:10.888Z,16
2022-12-16T03:13:10.888Z,16
2022-12-16T03:14:11.001Z,16
2022-12-16T03:15:10.870Z,16
2022-12-16T03:16:10.851Z,16
2022-12-16T03:17:10.839Z,16
2022-12-16T03:18:10.841Z,16
2022-12-16T03:19:10.831Z,16
2022-12-16T03:20:10.826Z,16
2022-12-16T03:21:10.840Z,16
2022-12-16T03:22:10.784Z,16
2022-12-16T03:23:10.775Z,16
2022-12-16T03:24:10.768Z,16
2022-12-16T03:25:10.801Z,16
2022-12-16T03:26:10.748Z,16
2022-12-16T03:27:10.742Z,16
2022-12-16T03:28:10.725Z,16
2022-12-16T03:29:10.793Z,16
2022-12-16T03:30:10.722Z,16
2022-12-16T03:31:10.701Z,16
2022-12-16T03:32:10.684Z,16
2022-12-16T03:33:10.676Z,16
2022-12-16T03:34:10.722Z,16
2022-12-16T03:35:10.808Z,16
2022-12-16T03:36:10.651Z,16
2022-12-16T03:37:10.644Z,16
2022-12-16T03:38:10.635Z,16
2022-12-16T03:39:10.774Z,16
2022-12-16T03:40:10.605Z,16
2022-12-16T03:41:10.596Z,16
2022-12-16T03:42:10.601Z,16
2022-12-16T03:43:10.617Z,16
2022-12-16T03:44:10.567Z,16
2022-12-16T03:45:10.565Z,16
2022-12-16T03:46:10.551Z,16
2022-12-16T03:47:10.534Z,16
2022-12-16T03:48:10.527Z,16
2022-12-16T03:49:10.519Z,16
2022-12-16T03:50:10.522Z,16
2022-12-16T03:51:10.531Z,16
2022-12-16T03:52:10.486Z,16
2022-12-16T03:53:10.478Z,16
2022-12-16T03:54:10.465Z,16
2022-12-16T03:55:10.495Z,16
2022-12-16T03:56:10.487Z,16
2022-12-16T03:57:10.439Z,16
2022-12-16T03:58:10.425Z,16
2022-12-16T03:59:10.422Z,16
2022-12-16T04:00:10.411Z,16
2022-12-16T04:01:10.403Z,28
2022-12-16T04:02:10.394Z,28
2022-12-16T04:03:10.382Z,28
2022-12-16T04:04:10.378Z,28
2022-12-16T04:05:10.556Z,28
2022-12-16T04:06:10.347Z,28
2022-12-16T04:07:10.345Z,28
2022-12-16T04:08:10.348Z,28
2022-12-16T04:09:10.319Z,28
2022-12-16T04:10:10.308Z,28
2022-12-16T04:11:10.330Z,28
2022-12-16T04:12:10.298Z,28
2022-12-16T04:13:10.275Z,28
2022-12-16T04:14:10.272Z,28
2022-12-16T04:15:10.288Z,28
2022-12-16T04:16:10.255Z,28
2022-12-16T04:17:10.247Z,28
2022-12-16T04:18:10.232Z,28
2022-12-16T04:19:10.221Z,28
2022-12-16T04:20:10.224Z,28
2022-12-16T04:21:10.199Z,28
2022-12-16T04:22:10.193Z,28
2022-12-16T04:23:10.186Z,28
2022-12-16T04:24:10.204Z,28
2022-12-16T04:25:10.221Z,28
2022-12-16T04:26:10.149Z,28
2022-12-16T04:27:10.142Z,28
2022-12-16T04:28:10.139Z,28
2022-12-16T04:29:10.121Z,28
2022-12-16T04:30:10.112Z,28
2022-12-16T04:31:10.099Z,28
2022-12-16T04:32:10.099Z,28
2022-12-16T04:33:10.079Z,28
2022-12-16T04:34:10.081Z,28
2022-12-16T04:35:10.060Z,28
2022-12-16T04:36:10.095Z,28
2022-12-16T04:37:10.078Z,28
2022-12-16T04:38:10.047Z,28
2022-12-16T04:39:10.020Z,28
2022-12-16T04:40:10.146Z,24
2022-12-16T04:41:10.026Z,28
2022-12-16T04:42:10.000Z,28
2022-12-16T04:43:09.978Z,28
2022-12-16T04:44:09.971Z,28
2022-12-16T04:45:09.982Z,28
2022-12-16T04:46:09.949Z,28
2022-12-16T04:47:09.937Z,28
2022-12-16T04:48:09.929Z,24
2022-12-16T04:49:09.916Z,28
2022-12-16T04:50:09.914Z,28
2022-12-16T04:51:09.896Z,24
2022-12-16T04:52:09.887Z,28
2022-12-16T04:53:09.884Z,24
2022-12-16T04:54:09.870Z,28
2022-12-16T04:55:09.887Z,28
2022-12-16T04:56:09.849Z,28
2022-12-16T04:57:09.840Z,28
2022-12-16T04:58:09.839Z,28
2022-12-16T04:59:09.829Z,28
2022-12-16T05:00:09.807Z,28
2022-12-16T05:01:09.823Z,28
2022-12-16T05:02:09.789Z,28
2022-12-16T05:03:09.787Z,28
2022-12-16T05:04:09.765Z,28
2022-12-16T05:05:09.781Z,28
2022-12-16T05:06:09.758Z,28
2022-12-16T05:07:09.736Z,28
2022-12-16T05:08:09.749Z,24
2022-12-16T05:09:09.727Z,24
2022-12-16T05:10:09.720Z,28
2022-12-16T05:11:09.707Z,24
2022-12-16T05:12:09.695Z,28
2022-12-16T05:13:09.676Z,24
2022-12-16T05:14:10.040Z,24
2022-12-16T05:15:09.896Z,24
2022-12-16T05:16:09.650Z,24
2022-12-16T05:17:09.637Z,24
2022-12-16T05:18:09.629Z,24
2022-12-16T05:19:09.614Z,24
2022-12-16T05:20:09.608Z,24
2022-12-16T05:21:09.673Z,24
2022-12-16T05:22:09.587Z,24
2022-12-16T05:23:09.575Z,24
2022-12-16T05:24:09.564Z,24
2022-12-16T05:25:09.556Z,24
2022-12-16T05:26:09.546Z,24
2022-12-16T05:27:09.533Z,24
2022-12-16T05:28:09.529Z,28
2022-12-16T05:29:09.518Z,28
2022-12-16T05:30:09.507Z,24
2022-12-16T05:31:09.506Z,24
2022-12-16T05:32:09.488Z,28
2022-12-16T05:33:09.476Z,28
2022-12-16T05:34:09.482Z,32
2022-12-16T05:35:09.460Z,28
2022-12-16T05:36:09.461Z,28
2022-12-16T05:37:09.457Z,24
2022-12-16T05:38:09.427Z,24
2022-12-16T05:39:09.417Z,28
2022-12-16T05:40:09.405Z,28
2022-12-16T05:41:09.396Z,24
2022-12-16T05:42:09.390Z,24
2022-12-16T05:43:09.373Z,28
2022-12-16T05:44:09.372Z,28
2022-12-16T05:45:09.364Z,24
2022-12-16T05:46:09.362Z,24
2022-12-16T05:47:09.336Z,24
2022-12-16T05:48:09.323Z,28
2022-12-16T05:49:09.317Z,28
2022-12-16T05:50:09.308Z,24
2022-12-16T05:51:09.295Z,24
2022-12-16T05:52:09.284Z,24
2022-12-16T05:53:09.274Z,24
2022-12-16T05:54:09.265Z,28
2022-12-16T05:55:09.257Z,24
2022-12-16T05:56:09.249Z,24
2022-12-16T05:57:09.238Z,24
2022-12-16T05:58:09.230Z,24
2022-12-16T05:59:09.213Z,24
2022-12-16T06:00:09.207Z,24
2022-12-16T06:01:09.224Z,24
2022-12-16T06:02:09.193Z,28
2022-12-16T06:03:09.174Z,28
2022-12-16T06:04:09.172Z,28
2022-12-16T06:05:09.155Z,24
2022-12-16T06:06:09.155Z,28
2022-12-16T06:07:09.135Z,28
2022-12-16T06:08:09.127Z,24
2022-12-16T06:09:09.113Z,24
2022-12-16T06:10:09.103Z,28
2022-12-16T06:11:09.106Z,24
2022-12-16T06:12:09.438Z,28
2022-12-16T06:13:09.089Z,28
2022-12-16T06:14:09.077Z,28
2022-12-16T06:15:09.057Z,24
2022-12-16T06:16:09.072Z,24
2022-12-16T06:17:09.042Z,28
2022-12-16T06:18:09.026Z,28
2022-12-16T06:19:09.014Z,28
2022-12-16T06:20:09.014Z,28
2022-12-16T06:21:08.998Z,28
2022-12-16T06:22:08.989Z,28
2022-12-16T06:23:08.976Z,28
2022-12-16T06:24:08.961Z,28
2022-12-16T06:25:08.953Z,24
2022-12-16T06:26:08.949Z,28
2022-12-16T06:27:09.267Z,28
2022-12-16T06:28:16.732Z,28
2022-12-16T06:29:18.025Z,28
2022-12-16T06:32:51.610Z,28
2022-12-16T06:34:01.431Z,24
2022-12-16T06:34:59.272Z,28
2022-12-16T06:35:59.305Z,28
2022-12-16T06:37:00.422Z,28
2022-12-16T06:38:01.255Z,28
2022-12-16T06:40:09.435Z,28
2022-12-16T06:41:19.037Z,24
2022-12-16T06:42:18.242Z,24
2022-12-16T06:43:18.598Z,24
2022-12-16T06:44:09.392Z,24
2022-12-16T06:45:09.383Z,24
2022-12-16T06:46:16.989Z,24
2022-12-16T06:47:09.358Z,24
2022-12-16T06:48:16.924Z,24
2022-12-16T06:49:09.388Z,24
2022-12-16T06:50:18.218Z,24
2022-12-16T06:51:18.144Z,28
2022-12-16T06:52:18.159Z,28
2022-12-16T06:53:18.427Z,28
2022-12-16T06:54:17.026Z,28
2022-12-16T06:55:16.950Z,28
2022-12-16T06:56:09.272Z,28
2022-12-16T06:57:09.262Z,28
2022-12-16T06:58:09.247Z,28
2022-12-16T06:59:09.239Z,32
2022-12-16T07:00:09.257Z,32
2022-12-16T07:01:09.247Z,36
2022-12-16T07:02:09.322Z,36
2022-12-16T07:03:09.271Z,36
2022-12-16T07:04:09.191Z,36
2022-12-16T07:05:09.180Z,28
2022-12-16T07:06:09.197Z,32
2022-12-16T07:07:09.161Z,32
2022-12-16T07:08:09.145Z,40
2022-12-16T07:09:09.142Z,40
2022-12-16T07:10:09.154Z,44
2022-12-16T07:11:09.122Z,48
2022-12-16T07:12:09.120Z,52
2022-12-16T07:13:09.141Z,60
2022-12-16T07:14:09.090Z,64
2022-12-16T07:15:09.105Z,64
2022-12-16T07:16:09.069Z,72
2022-12-16T07:17:09.110Z,80
2022-12-16T07:18:09.095Z,84
2022-12-16T07:19:09.086Z,96
2022-12-16T07:20:09.022Z,100
2022-12-16T07:21:09.017Z,112
2022-12-16T07:22:09.073Z,116
2022-12-16T07:23:09.004Z,128
2022-12-16T07:24:09.207Z,140
2022-12-16T07:25:08.975Z,148
2022-12-16T07:26:08.964Z,148
2022-12-16T07:27:08.977Z,156
2022-12-16T07:28:08.950Z,172
2022-12-16T07:29:08.955Z,184
2022-12-16T07:30:08.956Z,196
2022-12-16T07:31:09.099Z,212
2022-12-16T07:32:08.916Z,228
2022-12-16T07:33:08.933Z,244
2022-12-16T07:34:08.901Z,260
2022-12-16T07:35:08.875Z,276
2022-12-16T07:36:08.915Z,296
2022-12-16T07:37:08.909Z,312
2022-12-16T07:38:08.847Z,332
2022-12-16T07:39:08.835Z,352
2022-12-16T07:40:08.834Z,376
2022-12-16T07:41:08.813Z,400
2022-12-16T07:42:08.802Z,432
2022-12-16T07:43:08.792Z,452
2022-12-16T07:44:08.852Z,472
2022-12-16T07:45:08.788Z,492
2022-12-16T07:46:08.776Z,508
2022-12-16T07:47:08.750Z,528
2022-12-16T07:48:08.760Z,552
2022-12-16T07:49:08.729Z,568
2022-12-16T07:50:08.729Z,588
2022-12-16T07:51:08.713Z,604
2022-12-16T07:52:08.739Z,620
2022-12-16T07:53:08.687Z,640
2022-12-16T07:54:08.701Z,660
2022-12-16T07:55:08.671Z,684
2022-12-16T07:56:08.660Z,700
2022-12-16T07:57:09.667Z,724
2022-12-16T07:58:08.640Z,740
2022-12-16T07:59:08.731Z,760
2022-12-16T08:00:08.621Z,776
2022-12-16T08:01:08.774Z,792
2022-12-16T08:02:08.603Z,816
2022-12-16T08:03:08.627Z,832
2022-12-16T08:04:08.583Z,856
2022-12-16T08:05:08.569Z,876
2022-12-16T08:06:08.560Z,892
2022-12-16T08:07:08.553Z,912
2022-12-16T08:08:08.548Z,932
2022-12-16T08:09:08.532Z,948
2022-12-16T08:10:08.549Z,968
2022-12-16T08:11:08.508Z,988
2022-12-16T08:12:08.508Z,1000
2022-12-16T08:13:08.529Z,1020
2022-12-16T08:14:08.504Z,1036
2022-12-16T08:15:08.471Z,1052
2022-12-16T08:16:08.454Z,1068
2022-12-16T08:17:08.449Z,1084
2022-12-16T08:18:08.468Z,1100
2022-12-16T08:20:08.426Z,1132
2022-12-16T08:21:08.412Z,1156
2022-12-16T08:22:08.405Z,1172
2022-12-16T08:23:08.415Z,1192
2022-12-16T08:24:08.379Z,1208
2022-12-16T08:25:08.384Z,1224
2022-12-16T08:26:08.358Z,1236
2022-12-16T08:27:08.366Z,1252
2022-12-16T08:28:08.340Z,1268
2022-12-16T08:29:08.349Z,1288
2022-12-16T08:30:08.708Z,1304
2022-12-16T08:31:08.311Z,1328
2022-12-16T08:32:08.301Z,1348
2022-12-16T08:33:08.296Z,1360
2022-12-16T08:34:08.287Z,1376
2022-12-16T08:35:08.294Z,1384
2022-12-16T08:36:08.257Z,1400
2022-12-16T08:37:08.248Z,1412
2022-12-16T08:38:08.240Z,1428
2022-12-16T08:39:08.237Z,1448
2022-12-16T08:40:08.309Z,1464
2022-12-16T08:41:08.211Z,1480
2022-12-16T08:42:08.206Z,1508
2022-12-16T08:43:08.218Z,1532
2022-12-16T08:44:08.179Z,1556
2022-12-16T08:45:08.262Z,1572
2022-12-16T08:46:08.158Z,1588
2022-12-16T08:47:08.180Z,1624
2022-12-16T08:48:08.140Z,1644
2022-12-16T08:49:08.125Z,1676
2022-12-16T08:50:08.117Z,1696
2022-12-16T08:51:08.107Z,1712
2022-12-16T08:52:08.095Z,1740
2022-12-16T08:53:08.083Z,1764
2022-12-16T08:54:08.091Z,1780
2022-12-16T08:55:08.076Z,1812
2022-12-16T08:56:08.071Z,1836
2022-12-16T08:57:08.045Z,1860
2022-12-16T08:58:08.043Z,1876
2022-12-16T08:59:08.024Z,1904
2022-12-16T09:00:08.023Z,1928
2022-12-16T09:01:08.279Z,1952
2022-12-16T09:02:08.010Z,1976
2022-12-16T09:03:08.008Z,2004
2022-12-16T09:04:07.982Z,2036
2022-12-16T09:05:07.967Z,2068
2022-12-16T09:06:07.958Z,2096
2022-12-16T09:07:07.966Z,2128
2022-12-16T09:08:07.962Z,2148
2022-12-16T09:09:08.029Z,2216
2022-12-16T09:10:07.929Z,2188
2022-12-16T09:11:07.910Z,2228
2022-12-16T09:12:07.951Z,2248
2022-12-16T09:13:07.891Z,2268
2022-12-16T09:14:07.927Z,2272
2022-12-16T09:15:07.867Z,2296
2022-12-16T09:16:07.862Z,2332
2022-12-16T09:17:07.846Z,2336
2022-12-16T09:18:07.846Z,2368
2022-12-16T09:19:07.822Z,2384
2022-12-16T09:20:07.818Z,2388
2022-12-16T09:21:07.807Z,2400
2022-12-16T09:22:07.794Z,2432
2022-12-16T09:23:07.790Z,2460
2022-12-16T09:24:07.776Z,2480
2022-12-16T09:25:07.768Z,2504
2022-12-16T09:26:07.755Z,2536
2022-12-16T09:27:07.748Z,2556
2022-12-16T09:28:07.744Z,2588
2022-12-16T09:29:07.753Z,2612
2022-12-16T09:30:07.746Z,2632
2022-12-16T09:31:07.705Z,2656
2022-12-16T09:32:07.695Z,2688
2022-12-16T09:33:07.703Z,2856
2022-12-16T09:34:07.680Z,3124
2022-12-16T09:35:07.665Z,3220
2022-12-16T09:36:07.662Z,3012
2022-12-16T09:37:07.646Z,2924
2022-12-16T09:38:07.641Z,3160
2022-12-16T09:39:07.656Z,3172
2022-12-16T09:40:07.632Z,3092
2022-12-16T09:41:07.603Z,3048
2022-12-16T09:42:07.594Z,3008
2022-12-16T09:43:07.606Z,3008
2022-12-16T09:44:07.571Z,3124
2022-12-16T09:45:07.577Z,3072
2022-12-16T09:46:07.559Z,3100
2022-12-16T09:47:07.544Z,3100
2022-12-16T09:48:07.539Z,3140
2022-12-16T09:49:07.537Z,3168
2022-12-16T09:50:07.524Z,3268
2022-12-16T09:51:07.504Z,3208
2022-12-16T09:52:07.541Z,3224
2022-12-16T09:53:07.477Z,3248
2022-12-16T09:54:07.511Z,3264
2022-12-16T09:55:07.460Z,3292
2022-12-16T09:56:07.492Z,3320
2022-12-16T09:57:07.443Z,3368
2022-12-16T09:58:07.428Z,3376
2022-12-16T09:59:07.419Z,3412
2022-12-16T10:00:07.859Z,3460
2022-12-16T10:01:07.889Z,3500
2022-12-16T10:02:07.386Z,3560
2022-12-16T10:03:07.378Z,3624
2022-12-16T10:04:07.387Z,3676
2022-12-16T10:05:07.360Z,3724
2022-12-16T10:06:07.345Z,3764
2022-12-16T10:07:07.336Z,3792
2022-12-16T10:08:07.343Z,3840
2022-12-16T10:09:07.312Z,3868
2022-12-16T10:10:07.317Z,3908
2022-12-16T10:11:07.302Z,3924
2022-12-16T10:12:07.286Z,3976
2022-12-16T10:13:07.303Z,4000
2022-12-16T10:14:07.259Z,4044
2022-12-16T10:15:07.265Z,4064
2022-12-16T10:16:07.261Z,4072
2022-12-16T10:17:07.233Z,4128
2022-12-16T10:18:07.220Z,4160
2022-12-16T10:19:07.212Z,4160
2022-12-16T10:20:07.215Z,4176
2022-12-16T10:21:07.568Z,4196
2022-12-16T10:22:07.182Z,4212
2022-12-16T10:23:07.173Z,4224
2022-12-16T10:24:07.168Z,4252
2022-12-16T10:25:07.163Z,4260
2022-12-16T10:26:07.290Z,4312
2022-12-16T10:27:07.129Z,4320
2022-12-16T10:28:07.147Z,4320
2022-12-16T10:29:07.108Z,4332
2022-12-16T10:30:07.147Z,4388
2022-12-16T10:31:07.114Z,4488
2022-12-16T10:32:07.083Z,4496
2022-12-16T10:33:07.079Z,4420
2022-12-16T10:34:07.058Z,4456
2022-12-16T10:35:07.095Z,4728
2022-12-16T10:36:07.033Z,5320
2022-12-16T10:37:07.024Z,5960
2022-12-16T10:38:07.016Z,5976
2022-12-16T10:39:07.016Z,5184
2022-12-16T10:40:07.149Z,4764
2022-12-16T10:41:08.217Z,4260
2022-12-16T10:42:06.975Z,3984
2022-12-16T10:43:06.997Z,3940
2022-12-16T10:44:06.971Z,3532
2022-12-16T10:45:07.028Z,3588
2022-12-16T10:46:06.936Z,3516
2022-12-16T10:47:06.936Z,4964
2022-12-16T10:48:06.911Z,5364
2022-12-16T10:49:06.909Z,4412
2022-12-16T10:50:06.901Z,4912
2022-12-16T10:51:06.884Z,4768
2022-12-16T10:52:06.877Z,4708
2022-12-16T10:53:06.862Z,4464
2022-12-16T10:54:06.859Z,4676
2022-12-16T10:55:06.865Z,4804
2022-12-16T10:56:06.944Z,4512
2022-12-16T10:57:06.852Z,4716
2022-12-16T10:58:06.810Z,4708
2022-12-16T10:59:06.875Z,4648
2022-12-16T11:00:06.794Z,4528
2022-12-16T11:01:06.780Z,4628
2022-12-16T11:02:06.834Z,4556
2022-12-16T11:03:06.775Z,4580
2022-12-16T11:04:06.758Z,4416
2022-12-16T11:05:06.813Z,4376
2022-12-16T11:06:06.730Z,4364
2022-12-16T11:07:06.722Z,4428
2022-12-16T11:08:06.715Z,4524
2022-12-16T11:09:06.701Z,4544
2022-12-16T11:10:06.686Z,4552
2022-12-16T11:11:06.708Z,4592
2022-12-16T11:12:06.670Z,4508
2022-12-16T11:13:06.655Z,4632
2022-12-16T11:14:06.654Z,4628
2022-12-16T11:15:06.659Z,4596
2022-12-16T11:16:06.624Z,4692
2022-12-16T11:17:06.612Z,4624
2022-12-16T11:18:06.608Z,4792
2022-12-16T11:19:06.594Z,4756
2022-12-16T11:20:06.581Z,4860
2022-12-16T11:21:06.575Z,4896
2022-12-16T11:22:06.565Z,4956
2022-12-16T11:23:06.553Z,4988
2022-12-16T11:24:06.545Z,5024
2022-12-16T11:25:06.538Z,5004
2022-12-16T11:26:06.523Z,5128
2022-12-16T11:27:06.511Z,5180
2022-12-16T11:28:06.505Z,5200
2022-12-16T11:29:06.500Z,5348
2022-12-16T11:30:06.502Z,5464
2022-12-16T11:31:06.477Z,5624
2022-12-16T11:32:06.478Z,5816
2022-12-16T11:33:06.451Z,6080
2022-12-16T11:34:06.441Z,6348
2022-12-16T11:35:06.506Z,6640
2022-12-16T11:36:06.425Z,33568
2022-12-16T11:37:06.424Z,75264
2022-12-16T11:38:06.398Z,83904
2022-12-16T11:39:06.388Z,72896
2022-12-16T11:40:06.378Z,84128
2022-12-16T11:41:06.378Z,82912
2022-12-16T11:42:06.358Z,82528
2022-12-16T11:43:06.384Z,83008
2022-12-16T11:44:06.374Z,83456
2022-12-16T11:45:06.360Z,81856
2022-12-16T11:46:06.422Z,80448
2022-12-16T11:47:06.332Z,78720
2022-12-16T11:48:06.288Z,76224
2022-12-16T11:49:06.342Z,71744
2022-12-16T11:50:06.270Z,78752
2022-12-16T11:51:06.265Z,77440
2022-12-16T11:52:06.254Z,73440
2022-12-16T11:53:06.296Z,79584
2022-12-16T11:54:06.222Z,80928
2022-12-16T11:55:06.217Z,78976
2022-12-16T11:56:06.222Z,77984
2022-12-16T11:57:06.193Z,79520
2022-12-16T11:58:06.185Z,79648
2022-12-16T11:59:06.174Z,77792
2022-12-16T12:00:06.214Z,79680
2022-12-16T12:01:06.167Z,79456
2022-12-16T12:02:06.155Z,80384
2022-12-16T12:03:06.137Z,76992
2022-12-16T12:04:06.115Z,80480
2022-12-16T12:05:06.113Z,78464
2022-12-16T12:06:06.116Z,80000
2022-12-16T12:07:06.084Z,83616
2022-12-16T12:08:06.097Z,82528
2022-12-16T12:09:06.065Z,80064
2022-12-16T12:10:06.056Z,81440
2022-12-16T12:11:06.103Z,79552
2022-12-16T12:12:06.051Z,76992
2022-12-16T12:13:06.040Z,76064
2022-12-16T12:14:06.011Z,75808
2022-12-16T12:15:06.000Z,80704
2022-12-16T12:16:06.009Z,76768
2022-12-16T12:17:06.035Z,75744
2022-12-16T12:18:05.973Z,72128
2022-12-16T12:19:05.979Z,70560
2022-12-16T12:20:05.949Z,71808
2022-12-16T12:21:05.953Z,50144
2022-12-16T12:22:05.936Z,14668
2022-12-16T12:23:05.916Z,4984
2022-12-16T12:24:05.905Z,4752
2022-12-16T12:25:05.926Z,4632
2022-12-16T12:26:05.913Z,4536
2022-12-16T12:27:05.929Z,4448
2022-12-16T12:28:05.863Z,4356
2022-12-16T12:29:05.854Z,4304
2022-12-16T12:30:05.855Z,4232
2022-12-16T12:31:05.916Z,4148
2022-12-16T12:32:05.882Z,4096
2022-12-16T12:33:05.804Z,4028
2022-12-16T12:34:05.810Z,3992
2022-12-16T12:35:05.798Z,3924
2022-12-16T12:36:05.798Z,3888
2022-12-16T12:37:05.764Z,3848
2022-12-16T12:38:05.755Z,3804
2022-12-16T12:39:05.769Z,3760
2022-12-16T12:40:05.731Z,3696
2022-12-16T12:41:05.745Z,3648
2022-12-16T12:42:05.713Z,3604
2022-12-16T12:43:05.701Z,3576
2022-12-16T12:44:05.691Z,3536
2022-12-16T12:45:05.684Z,3496
2022-12-16T12:46:05.677Z,3460
2022-12-16T12:47:05.707Z,3428
2022-12-16T12:48:05.758Z,3392
2022-12-16T12:49:05.647Z,3492
2022-12-16T12:50:05.641Z,3336
2022-12-16T12:51:05.622Z,3316
2022-12-16T12:52:05.610Z,3280
2022-12-16T12:53:05.593Z,3248
2022-12-16T12:54:05.588Z,3228
2022-12-16T12:55:05.576Z,3200
2022-12-16T12:56:05.566Z,3164
2022-12-16T12:57:05.586Z,3132
2022-12-16T12:58:05.545Z,3096
2022-12-16T12:59:05.532Z,3060
2022-12-16T13:00:05.527Z,3024
2022-12-16T13:01:05.521Z,3000
2022-12-16T13:02:05.678Z,2968
2022-12-16T13:03:05.498Z,2928
2022-12-16T13:04:05.482Z,2916
2022-12-16T13:05:05.482Z,2896
2022-12-16T13:06:05.497Z,2868
2022-12-16T13:07:05.496Z,2840
2022-12-16T13:08:05.497Z,2800
2022-12-16T13:09:05.533Z,2772
2022-12-16T13:10:05.413Z,2756
2022-12-16T13:11:05.410Z,2720
2022-12-16T13:12:05.517Z,2696
2022-12-16T13:13:05.461Z,2676
2022-12-16T13:14:05.460Z,2628
2022-12-16T13:15:05.381Z,2612
2022-12-16T13:16:05.359Z,2576
2022-12-16T13:17:05.403Z,2560
2022-12-16T13:18:05.336Z,2540
2022-12-16T13:19:05.653Z,2524
2022-12-16T13:20:05.310Z,2504
2022-12-16T13:21:05.299Z,2476
2022-12-16T13:22:05.301Z,2452
2022-12-16T13:23:05.298Z,2440
2022-12-16T13:24:05.274Z,2412
2022-12-16T13:25:05.367Z,2388
2022-12-16T13:26:05.251Z,2364
2022-12-16T13:27:05.259Z,2336
2022-12-16T13:28:05.225Z,2316
2022-12-16T13:29:05.216Z,2300
2022-12-16T13:30:05.207Z,2276
2022-12-16T13:31:05.206Z,2252
2022-12-16T13:32:05.219Z,2228
2022-12-16T13:33:05.177Z,2212
2022-12-16T13:34:05.161Z,2180
2022-12-16T13:35:05.161Z,2160
2022-12-16T13:36:05.160Z,2148
2022-12-16T13:37:05.178Z,2124
2022-12-16T13:38:05.120Z,2112
2022-12-16T13:39:05.192Z,2084
2022-12-16T13:40:05.104Z,2056
2022-12-16T13:41:05.090Z,2036
2022-12-16T13:42:05.131Z,2012
2022-12-16T13:43:05.070Z,1992
2022-12-16T13:44:05.062Z,1972
2022-12-16T13:45:05.059Z,1952
2022-12-16T13:46:05.056Z,1940
2022-12-16T13:47:05.053Z,1924
2022-12-16T13:48:05.025Z,1896
2022-12-16T13:49:05.020Z,1880
2022-12-16T13:50:04.995Z,1860
2022-12-16T13:51:04.999Z,1836
2022-12-16T13:52:05.986Z,1808